createdAt,value
2023-02-22T00:00:04.969Z,16.6
2023-02-22T00:06:14.480Z,18.2
2023-02-22T00:08:16.586Z,17.6
2023-02-22T00:12:20.765Z,20.2
2023-02-22T00:14:22.806Z,16.6
2023-02-22T00:16:28.240Z,19.6
2023-02-22T00:20:33.838Z,16.7
2023-02-22T00:22:35.914Z,18.3
2023-02-22T00:24:37.978Z,18.5
2023-02-22T00:26:40.073Z,17.5
2023-02-22T00:28:42.176Z,18.6
2023-02-22T00:30:47.482Z,17.8
2023-02-22T00:32:49.550Z,17.1
2023-02-22T00:34:51.650Z,16
2023-02-22T00:36:53.724Z,15.6
2023-02-22T00:38:55.837Z,16.7
2023-02-22T00:40:57.896Z,14.9
2023-02-22T00:45:05.282Z,15.3
2023-02-22T00:47:07.401Z,17.1
2023-02-22T00:49:09.473Z,18.4
2023-02-22T00:52:14.198Z,18.7
2023-02-22T00:54:16.280Z,19.4
2023-02-22T01:00:25.786Z,18.9
2023-02-22T01:02:27.854Z,20.3
2023-02-22T01:04:29.934Z,21.7
2023-02-22T01:06:32.011Z,20
2023-02-22T01:08:34.107Z,21.8
2023-02-22T01:10:36.186Z,24.5
2023-02-22T01:12:41.489Z,27.3
2023-02-22T01:14:43.541Z,27.3
2023-02-22T01:16:45.699Z,27.3
2023-02-22T01:18:47.736Z,30
2023-02-22T01:20:49.804Z,32.9
2023-02-22T01:22:51.902Z,28.7
2023-02-22T01:24:53.996Z,31.6
2023-02-22T01:26:59.288Z,32.1
2023-02-22T01:29:01.384Z,30.2
2023-02-22T01:31:03.592Z,30.6
2023-02-22T01:33:05.688Z,35.2
2023-02-22T01:35:07.622Z,35
2023-02-22T01:37:10.338Z,34.8
2023-02-22T01:39:12.429Z,36.6
2023-02-22T01:41:18.135Z,38.5
2023-02-22T01:43:19.824Z,34.9
2023-02-22T01:45:21.898Z,37.5
2023-02-22T01:54:00.211Z,40.5
2023-02-22T01:56:02.290Z,42.3
2023-02-22T01:58:04.360Z,44.9
2023-02-22T02:00:06.427Z,40.7
2023-02-22T02:02:08.506Z,43.4
2023-02-22T02:04:10.649Z,39.4
2023-02-22T02:06:12.657Z,38.6
2023-02-22T02:08:17.956Z,38.9
2023-02-22T02:10:20.033Z,43.4
2023-02-22T02:12:22.107Z,37.7
2023-02-22T02:14:24.238Z,40.1
2023-02-22T02:16:26.296Z,36.8
2023-02-22T02:18:28.333Z,41.8
2023-02-22T02:20:30.419Z,35.7
2023-02-22T02:22:35.738Z,37.6
2023-02-22T02:24:37.804Z,37.5
2023-02-22T02:26:39.882Z,33.7
2023-02-22T02:28:41.959Z,34.2
2023-02-22T02:30:44.036Z,35.3
2023-02-22T02:32:46.141Z,34.7
2023-02-22T02:34:48.152Z,29.9
2023-02-22T02:36:53.454Z,34.2
2023-02-22T02:38:55.606Z,30.5
2023-02-22T02:40:57.602Z,30.3
2023-02-22T02:44:02.321Z,30
2023-02-22T02:46:04.403Z,28.6
2023-02-22T02:48:06.456Z,27.7
2023-02-22T02:54:15.888Z,27.5
2023-02-22T02:56:17.955Z,26.7
2023-02-22T02:58:20.020Z,26.7
2023-02-22T03:00:22.098Z,23.5
2023-02-22T03:02:24.147Z,25.7
2023-02-22T03:04:29.449Z,24.7
2023-02-22T03:06:31.550Z,24.7
2023-02-22T03:08:33.599Z,25
2023-02-22T03:10:35.652Z,24.3
2023-02-22T03:12:37.726Z,21.6
2023-02-22T03:16:41.922Z,23.6
2023-02-22T03:18:47.140Z,23.7
2023-02-22T03:20:49.225Z,25
2023-02-22T03:22:51.241Z,24.6
2023-02-22T03:26:55.368Z,22.8
2023-02-22T03:35:06.837Z,23.6
2023-02-22T03:37:08.874Z,20.6
2023-02-22T03:38:11.537Z,22.3
2023-02-22T03:42:15.639Z,20
2023-02-22T03:44:17.705Z,21.1
2023-02-22T03:46:23.033Z,23.1
2023-02-22T03:48:25.053Z,23.1
2023-02-22T03:50:27.094Z,19.7
2023-02-22T03:52:29.127Z,22.8
2023-02-22T03:54:31.191Z,22.2
2023-02-22T03:56:34.470Z,23.9
2023-02-22T03:58:35.287Z,22.5
2023-02-22T04:04:45.518Z,25.5
2023-02-22T04:06:47.586Z,22.4
2023-02-22T04:08:49.635Z,21.9
2023-02-22T04:10:51.684Z,24.1
2023-02-22T04:12:53.746Z,25.2
2023-02-22T04:14:58.994Z,24.2
2023-02-22T04:17:01.065Z,25.2
2023-02-22T04:23:07.178Z,25.4
2023-02-22T04:29:16.547Z,26.1
2023-02-22T04:31:18.887Z,24.4
2023-02-22T04:34:23.282Z,27
2023-02-22T04:36:25.290Z,26.2
2023-02-22T04:38:27.332Z,23.8
2023-02-22T04:40:29.362Z,23.8
2023-02-22T04:44:36.685Z,31.3
2023-02-22T04:46:38.768Z,25.2
2023-02-22T04:48:40.775Z,24.4
2023-02-22T05:00:56.214Z,24.9
2023-02-22T05:02:58.315Z,24.4
2023-02-22T05:05:00.407Z,25.5
2023-02-22T05:07:02.305Z,27.4
2023-02-22T05:09:04.326Z,31.1
2023-02-22T05:11:09.607Z,30.3
2023-02-22T05:13:11.641Z,25.9
2023-02-22T05:15:13.676Z,26.1
2023-02-22T05:17:15.716Z,25.6
2023-02-22T05:19:17.735Z,28.3
2023-02-22T05:21:19.795Z,27.5
2023-02-22T05:23:21.815Z,29.7
2023-02-22T05:25:27.084Z,30.4
2023-02-22T05:27:29.102Z,26.9
2023-02-22T05:29:31.127Z,27.9
2023-02-22T05:32:00.068Z,30.6
2023-02-22T05:36:04.025Z,30.2
2023-02-22T05:44:15.358Z,29.3
2023-02-22T05:46:17.390Z,25.5
2023-02-22T05:52:26.691Z,31.9
2023-02-22T05:54:28.714Z,30.2
2023-02-22T05:56:30.746Z,30.7
2023-02-22T06:02:36.834Z,26.5
2023-02-22T06:04:38.862Z,31.7
2023-02-22T06:08:46.148Z,31
2023-02-22T06:14:55.320Z,31.4
2023-02-22T06:16:57.323Z,30.6
2023-02-22T06:18:59.348Z,33.4
2023-02-22T06:21:04.631Z,32.4
2023-02-22T06:23:06.641Z,34.8
2023-02-22T06:26:11.324Z,35.2
2023-02-22T06:28:13.342Z,37
2023-02-22T06:30:15.425Z,34.3
2023-02-22T06:32:17.533Z,37.5
2023-02-22T06:34:22.667Z,37.9
2023-02-22T06:36:24.702Z,37.8
2023-02-22T06:38:26.726Z,31.6
2023-02-22T06:40:28.778Z,39.1
2023-02-22T06:48:40.153Z,40.2
2023-02-22T06:54:46.240Z,37.4
2023-02-22T06:56:48.271Z,40.5
2023-02-22T06:58:50.289Z,43.3
2023-02-22T07:00:52.336Z,43.2
2023-02-22T07:02:57.605Z,46.6
2023-02-22T07:04:59.635Z,45.5
2023-02-22T07:07:01.634Z,43.6
2023-02-22T07:09:03.673Z,41.5
2023-02-22T07:11:05.691Z,45.1
2023-02-22T07:13:07.704Z,47.1
2023-02-22T07:15:09.755Z,46.4
2023-02-22T07:19:17.029Z,52.6
2023-02-22T07:21:19.209Z,46.7
2023-02-22T07:22:21.813Z,50.3
2023-02-22T07:24:23.708Z,59.3
2023-02-22T07:26:25.722Z,53.1
2023-02-22T07:28:27.744Z,47.9
2023-02-22T07:30:33.101Z,57
2023-02-22T07:32:35.178Z,55
2023-02-22T07:34:37.040Z,47.6
2023-02-22T07:36:39.073Z,54
2023-02-22T07:38:41.096Z,55.5
2023-02-22T07:40:43.225Z,55.1
2023-02-22T07:42:45.233Z,53.2
2023-02-22T07:48:54.544Z,51
2023-02-22T07:50:56.571Z,52.9
2023-02-22T07:52:58.596Z,53.2
2023-02-22T07:55:00.628Z,50.2
2023-02-22T07:57:02.628Z,47.1
2023-02-22T07:59:07.889Z,59.7
2023-02-22T08:01:09.919Z,52.8
2023-02-22T08:03:11.971Z,46.3
2023-02-22T08:09:18.028Z,52.9
2023-02-22T08:11:20.086Z,46.5
2023-02-22T08:15:27.831Z,44
2023-02-22T08:18:32.513Z,45
2023-02-22T08:20:34.507Z,43.5
2023-02-22T08:24:38.593Z,43.1
2023-02-22T08:26:43.804Z,41.6
2023-02-22T08:28:45.836Z,44.8
2023-02-22T08:30:47.954Z,46.2
2023-02-22T08:32:50.034Z,44.5
2023-02-22T08:34:51.913Z,41.7
2023-02-22T08:36:53.951Z,43
2023-02-22T08:38:56.008Z,36.8
2023-02-22T08:41:01.233Z,41.2
2023-02-22T08:43:03.272Z,43.5
2023-02-22T08:45:05.304Z,41.7
2023-02-22T08:49:09.360Z,44
2023-02-22T08:51:11.392Z,46
2023-02-22T08:53:13.446Z,39.9
2023-02-22T08:55:18.683Z,39.3
2023-02-22T08:57:21.732Z,51
2023-02-22T08:59:22.755Z,38.7
2023-02-22T09:01:32.683Z,37.9
2023-02-22T09:03:26.860Z,37.8
2023-02-22T09:05:31.225Z,39.9
2023-02-22T09:07:30.920Z,34.2
2023-02-22T09:09:36.208Z,38.4
2023-02-22T09:11:38.247Z,37.7
2023-02-22T09:13:40.291Z,35.3
2023-02-22T09:16:09.131Z,35.3
2023-02-22T09:18:11.198Z,36.6
2023-02-22T09:20:13.199Z,34.7
2023-02-22T09:24:20.533Z,35.3
2023-02-22T09:26:22.588Z,37.4
2023-02-22T09:32:28.912Z,31.5
2023-02-22T09:34:30.814Z,35.3
2023-02-22T09:36:36.098Z,31.9
2023-02-22T09:38:38.161Z,28
2023-02-22T09:40:40.208Z,32.7
2023-02-22T09:42:42.275Z,28
2023-02-22T09:44:44.324Z,28.1
2023-02-22T09:46:46.390Z,28.3
2023-02-22T09:48:48.428Z,30.4
2023-02-22T09:50:53.762Z,28.3
2023-02-22T09:52:55.821Z,27
2023-02-22T09:54:57.856Z,30.2
2023-02-22T09:56:59.924Z,32.2
2023-02-22T09:59:01.985Z,28.5
2023-02-22T10:01:04.071Z,29.7
2023-02-22T10:03:06.115Z,28.9
2023-02-22T10:05:11.478Z,28
2023-02-22T10:07:13.501Z,26.2
2023-02-22T10:09:15.616Z,26.2
2023-02-22T10:10:18.257Z,26.7
2023-02-22T10:12:20.317Z,26.1
2023-02-22T10:14:22.438Z,23.8
2023-02-22T10:16:24.512Z,26.9
2023-02-22T10:18:29.811Z,24.8
2023-02-22T10:20:31.889Z,23.9
2023-02-22T10:22:33.983Z,25.7
2023-02-22T10:24:36.056Z,25.7
2023-02-22T10:26:38.151Z,23.8
2023-02-22T10:28:40.246Z,24.7
2023-02-22T10:30:42.456Z,23
2023-02-22T10:32:47.679Z,24.4
2023-02-22T10:38:53.968Z,22.6
2023-02-22T10:40:56.086Z,25
2023-02-22T10:42:58.236Z,24.1
2023-02-22T10:45:00.291Z,25.1
2023-02-22T10:47:05.615Z,26.8
2023-02-22T10:49:07.709Z,21.9
2023-02-22T10:51:09.802Z,22.2
2023-02-22T10:53:11.922Z,24.3
2023-02-22T10:55:15.640Z,24.3
2023-02-22T10:59:18.259Z,21.2
2023-02-22T11:01:23.737Z,23.4
2023-02-22T11:05:27.860Z,26.5
2023-02-22T11:16:44.253Z,27.6
2023-02-22T11:18:46.310Z,26.2
2023-02-22T11:20:48.419Z,28.6
2023-02-22T11:22:50.433Z,28.8
2023-02-22T11:24:52.566Z,26.4
2023-02-22T11:26:54.694Z,25.2
2023-02-22T11:33:04.198Z,23.7
2023-02-22T11:43:17.975Z,26.9
2023-02-22T11:45:20.092Z,24.3
2023-02-22T11:51:26.512Z,27.4
2023-02-22T11:53:28.629Z,26.3
2023-02-22T11:59:38.268Z,29.1
2023-02-22T12:02:51.924Z,30
2023-02-22T12:06:48.654Z,27.3
2023-02-22T12:08:51.915Z,29.3
2023-02-22T12:10:56.024Z,30.1
2023-02-22T12:12:58.087Z,24.7
2023-02-22T12:15:00.241Z,30
2023-02-22T12:17:02.391Z,27.7
2023-02-22T12:19:04.508Z,30
2023-02-22T12:21:06.683Z,27.1
2023-02-22T12:23:08.733Z,29
2023-02-22T12:25:14.015Z,29.2
2023-02-22T12:29:18.293Z,25.9
2023-02-22T12:37:26.520Z,34.9
2023-02-22T12:45:37.997Z,25.1
2023-02-22T12:51:44.479Z,28.3
2023-02-22T12:53:49.762Z,26.5
2023-02-22T12:55:51.817Z,30.2
2023-02-22T12:57:53.864Z,28
2023-02-22T13:00:22.697Z,32.6
2023-02-22T13:02:24.754Z,28.6
2023-02-22T13:04:26.825Z,24.9
2023-02-22T13:06:32.133Z,24.4
2023-02-22T13:08:34.186Z,26.6
2023-02-22T13:12:38.296Z,23.2
2023-02-22T13:14:40.347Z,24.9
2023-02-22T13:16:42.423Z,26.1
2023-02-22T13:18:44.491Z,27.7
2023-02-22T13:20:49.701Z,24.2
2023-02-22T13:28:57.919Z,24.8
2023-02-22T13:35:07.350Z,28.5
2023-02-22T13:45:17.833Z,23.7
2023-02-22T13:47:20.025Z,19.6
2023-02-22T13:51:27.539Z,15.5
2023-02-22T13:53:29.618Z,15.3
2023-02-22T13:54:32.304Z,14.5
2023-02-22T13:56:34.454Z,15.9
2023-02-22T13:58:36.628Z,17.2
2023-02-22T14:00:38.759Z,15.3
2023-02-22T14:02:43.959Z,18.5
2023-02-22T14:06:48.075Z,17.3
2023-02-22T14:08:50.126Z,17.1
2023-02-22T14:10:52.306Z,16.7
2023-02-22T14:12:54.335Z,16.1
2023-02-22T14:14:56.500Z,17.5
2023-02-22T14:19:03.965Z,17.2
2023-02-22T14:23:08.282Z,18.8
2023-02-22T14:31:34.591Z,17.7
2023-02-22T14:33:22.051Z,20.6
2023-02-22T14:37:26.316Z,18.4
2023-02-22T14:39:28.399Z,18.7
2023-02-22T14:41:30.540Z,18
2023-02-22T14:45:38.073Z,19.9
2023-02-22T14:47:40.057Z,19.7
2023-02-22T14:52:47.083Z,21.9
2023-02-22T14:54:49.172Z,20.3
2023-02-22T14:56:51.354Z,21.4
2023-02-22T14:58:56.743Z,20.9
2023-02-22T15:00:58.930Z,18.7
2023-02-22T15:09:07.364Z,19.7
2023-02-22T15:15:17.048Z,18.6
2023-02-22T15:17:19.237Z,19.2
2023-02-22T15:19:21.344Z,20.3
2023-02-22T15:21:23.515Z,19.3
2023-02-22T15:23:25.623Z,21.6
2023-02-22T15:25:27.761Z,19.4
2023-02-22T15:27:33.065Z,19.7
2023-02-22T15:29:35.201Z,21.3
2023-02-22T15:31:37.283Z,21.3
2023-02-22T15:33:39.370Z,19.2
2023-02-22T15:41:51.076Z,23.2
2023-02-22T15:43:53.139Z,20.8
2023-02-22T15:45:55.412Z,20.4
2023-02-22T15:46:57.974Z,21
2023-02-22T15:49:00.143Z,22.1
2023-02-22T15:51:02.254Z,21.7
2023-02-22T15:55:09.671Z,21.9
2023-02-22T15:57:11.726Z,21.7
2023-02-22T15:59:13.874Z,22.8
2023-02-22T16:01:16.331Z,20.9
2023-02-22T16:03:18.160Z,19.2
2023-02-22T16:09:27.756Z,20.7
2023-02-22T16:11:30.121Z,22.5
2023-02-22T16:13:33.056Z,21.8
2023-02-22T16:15:34.087Z,20.2
2023-02-22T16:17:36.267Z,22.6
2023-02-22T16:19:40.677Z,20.9
2023-02-22T16:21:40.490Z,20.1
2023-02-22T16:23:45.878Z,23.6
2023-02-22T16:25:47.891Z,23.4
2023-02-22T16:27:49.929Z,21.9
2023-02-22T16:29:52.072Z,21.3
2023-02-22T16:31:54.341Z,21.4
2023-02-22T16:33:56.346Z,20.4
2023-02-22T16:35:58.466Z,24.3
2023-02-22T16:38:03.901Z,23.4
2023-02-22T16:42:08.115Z,20.7
2023-02-22T16:44:36.988Z,25
2023-02-22T16:46:39.176Z,21.4
2023-02-22T16:48:41.238Z,20.9
2023-02-22T16:50:46.620Z,23.8
2023-02-22T16:52:48.747Z,21.1
2023-02-22T16:58:55.133Z,21.1
2023-02-22T17:00:57.502Z,22.2
2023-02-22T17:02:59.412Z,19.4
2023-02-22T17:05:04.858Z,22.2
2023-02-22T17:07:06.908Z,21.9
2023-02-22T17:09:09.034Z,22.2
2023-02-22T17:11:11.155Z,24.1
2023-02-22T17:13:22.999Z,20.7
2023-02-22T17:15:15.384Z,20.4
2023-02-22T17:17:17.551Z,24.3
2023-02-22T17:19:22.971Z,21.7
2023-02-22T17:21:25.205Z,21.7
2023-02-22T17:23:27.144Z,21.8
2023-02-22T17:25:29.258Z,21.7
2023-02-22T17:27:31.403Z,20
2023-02-22T17:29:33.505Z,21.9
2023-02-22T17:31:35.888Z,21.4
2023-02-22T17:33:40.988Z,20.2
2023-02-22T17:35:43.106Z,21.7
2023-02-22T17:37:45.240Z,22.8
2023-02-22T17:38:47.929Z,21.2
2023-02-22T17:40:50.037Z,20.6
2023-02-22T17:44:54.278Z,19.7
2023-02-22T17:46:59.556Z,22.3
2023-02-22T17:49:01.799Z,21.1
2023-02-22T17:51:03.810Z,20.1
2023-02-22T17:53:05.973Z,22.1
2023-02-22T17:55:08.060Z,20.7
2023-02-22T17:57:10.178Z,21.4
2023-02-22T17:59:13.863Z,22.7
2023-02-22T18:01:20.619Z,24.2
2023-02-22T18:03:21.365Z,23.2
2023-02-22T18:05:23.439Z,21.9
2023-02-22T18:07:25.578Z,23.5
2023-02-22T18:09:27.746Z,24.5
2023-02-22T18:11:29.827Z,22.8
2023-02-22T18:13:31.955Z,23.1
2023-02-22T18:15:37.317Z,22
2023-02-22T18:17:39.438Z,24.7
2023-02-22T18:19:41.563Z,24.1
2023-02-22T18:21:43.694Z,24.5
2023-02-22T18:23:45.775Z,23.6
2023-02-22T18:25:57.098Z,22.3
2023-02-22T18:27:50.037Z,23.3
2023-02-22T18:29:55.401Z,25.3
2023-02-22T18:31:57.603Z,26.8
2023-02-22T18:33:59.626Z,25.1
2023-02-22T18:35:02.325Z,27.2
2023-02-22T18:37:04.407Z,25.2
2023-02-22T18:39:06.537Z,24.3
2023-02-22T18:41:08.655Z,25.7
2023-02-22T18:43:14.021Z,27
2023-02-22T18:47:18.241Z,29.4
2023-02-22T18:49:20.389Z,27.5
2023-02-22T19:03:38.497Z,30.2
2023-02-22T19:05:40.441Z,32
2023-02-22T19:11:50.000Z,34
2023-02-22T19:13:52.148Z,33.9
2023-02-22T19:15:54.311Z,33.4
2023-02-22T19:17:56.347Z,34.6
2023-02-22T19:19:58.476Z,33.5
2023-02-22T19:22:00.610Z,35.6
2023-02-22T19:24:02.707Z,35.8
2023-02-22T19:26:08.059Z,41
2023-02-22T19:28:10.150Z,36.8
2023-02-22T19:31:15.053Z,37.4
2023-02-22T19:33:17.048Z,36.9
2023-02-22T19:35:19.161Z,39.3
2023-02-22T19:37:21.251Z,38.1
2023-02-22T19:39:26.589Z,39.5
2023-02-22T19:41:28.689Z,42.2
2023-02-22T19:43:30.808Z,37.5
2023-02-22T19:45:33.044Z,40
2023-02-22T19:47:35.067Z,40.4
2023-02-22T19:49:37.199Z,38.7
2023-02-22T19:51:39.247Z,41.7
2023-02-22T19:53:44.581Z,41.8
2023-02-22T19:55:46.674Z,43.2
2023-02-22T19:57:48.806Z,40
2023-02-22T19:59:50.897Z,43.1
2023-02-22T20:01:52.991Z,42.2
2023-02-22T20:03:55.246Z,42.6
2023-02-22T20:05:57.217Z,44.1
2023-02-22T20:08:02.565Z,43.3
2023-02-22T20:12:06.765Z,44.4
2023-02-22T20:14:08.915Z,44.6
2023-02-22T20:16:11.039Z,47.6
2023-02-22T20:18:13.081Z,46.2
2023-02-22T20:20:15.212Z,45.2
2023-02-22T20:22:20.592Z,49.9
2023-02-22T20:24:22.660Z,49.5
2023-02-22T20:26:24.756Z,47
2023-02-22T20:32:58.046Z,47
2023-02-22T20:49:21.162Z,46.7
2023-02-22T20:51:23.287Z,50.1
2023-02-22T20:53:25.425Z,51.5
2023-02-22T20:55:27.560Z,49.6
2023-02-22T20:57:29.644Z,50.7
2023-02-22T20:59:31.765Z,50.3
2023-02-22T21:01:33.948Z,54.1
2023-02-22T21:03:39.239Z,54.2
2023-02-22T21:05:41.338Z,57.8
2023-02-22T21:07:43.440Z,54.1
2023-02-22T21:09:45.568Z,52.7
2023-02-22T21:11:47.665Z,56.2
2023-02-22T21:13:49.771Z,54.5
2023-02-22T21:17:57.241Z,55.9
2023-02-22T21:22:01.511Z,54.4
2023-02-22T21:23:04.128Z,57.2
2023-02-22T21:27:08.408Z,52.8
2023-02-22T21:29:10.495Z,54.8
2023-02-22T21:33:17.931Z,57.8
2023-02-22T21:35:20.012Z,55.8
2023-02-22T21:39:24.257Z,57.7
2023-02-22T21:43:28.488Z,57.2
2023-02-22T21:45:33.810Z,60
2023-02-22T21:47:35.908Z,57.4
2023-02-22T21:49:37.996Z,58.1
2023-02-22T21:51:40.118Z,57
2023-02-22T21:53:42.223Z,59.7
2023-02-22T21:55:44.291Z,55.9
2023-02-22T22:01:53.846Z,61.7
2023-02-22T22:03:55.943Z,60.4
2023-02-22T22:05:58.029Z,56.5
2023-02-22T22:08:00.144Z,58.6
2023-02-22T22:10:02.238Z,58
2023-02-22T22:12:04.314Z,59.5
2023-02-22T22:14:09.670Z,61.9
2023-02-22T22:16:11.866Z,58.9
2023-02-22T22:18:13.840Z,57.7
2023-02-22T22:29:30.292Z,59.4
2023-02-22T22:37:38.599Z,60.9
2023-02-22T22:39:40.694Z,60.9
2023-02-22T22:41:46.031Z,58.9
2023-02-22T22:43:48.133Z,61.7
2023-02-22T22:47:52.288Z,57.4
2023-02-22T22:51:56.460Z,59.5
2023-02-22T22:53:58.602Z,55.2
2023-02-22T22:56:03.927Z,64
2023-02-22T22:58:06.006Z,62.7
2023-02-22T23:00:08.125Z,61.1
2023-02-22T23:02:10.220Z,57.8
2023-02-22T23:04:12.334Z,56.4
2023-02-22T23:15:28.721Z,59.1
2023-02-22T23:21:34.996Z,55.8
2023-02-22T23:23:40.325Z,58
2023-02-22T23:29:47.125Z,54.3
2023-02-22T23:31:49.013Z,53.1
2023-02-22T23:33:50.853Z,52.5
2023-02-22T23:35:52.957Z,55.4
2023-02-22T23:37:58.268Z,54.3
2023-02-22T23:40:00.411Z,55.7
2023-02-22T23:42:02.483Z,52.7
2023-02-22T23:44:04.592Z,56.3
2023-02-22T23:46:06.676Z,57.4
2023-02-22T23:52:17.721Z,56.3
2023-02-22T23:54:19.833Z,55.2
2023-02-22T23:56:21.957Z,55
2023-02-22T23:58:24.023Z,55
